createdAt,value
2022-09-01T00:01:50.217Z,13.82
2022-09-01T00:04:20.707Z,13.86
2022-09-01T00:06:48.729Z,13.90
2022-09-01T00:09:18.958Z,13.92
2022-09-01T00:11:50.771Z,13.96
2022-09-01T00:14:28.635Z,13.98
2022-09-01T00:16:59.642Z,13.98
2022-09-01T00:19:29.041Z,13.94
2022-09-01T00:21:56.871Z,13.93
2022-09-01T00:24:25.819Z,13.94
2022-09-01T00:26:54.594Z,13.95
2022-09-01T00:29:23.197Z,13.96
2022-09-01T00:31:51.102Z,13.98
2022-09-01T00:34:19.181Z,13.98
2022-09-01T00:36:47.623Z,13.98
2022-09-01T00:39:15.409Z,13.95
2022-09-01T00:41:45.604Z,13.92
2022-09-01T00:44:18.343Z,13.89
2022-09-01T00:46:51.027Z,13.89
2022-09-01T00:49:30.255Z,13.88
2022-09-01T00:52:06.777Z,13.90
2022-09-01T00:54:39.955Z,13.90
2022-09-01T00:57:09.983Z,13.90
2022-09-01T00:59:43.333Z,13.89
2022-09-01T01:02:10.989Z,13.89
2022-09-01T01:04:40.833Z,13.88
2022-09-01T01:07:08.937Z,13.87
2022-09-01T01:09:41.783Z,13.87
2022-09-01T01:12:13.020Z,13.87
2022-09-01T01:14:41.058Z,13.89
2022-09-01T01:17:08.612Z,13.92
2022-09-01T01:20:00.459Z,13.96
2022-09-01T01:22:57.104Z,13.99
2022-09-01T01:25:25.458Z,14.01
2022-09-01T01:28:02.854Z,14.02
2022-09-01T01:30:35.367Z,14.03
2022-09-01T01:33:04.495Z,14.02
2022-09-01T01:35:33.460Z,14.02
2022-09-01T01:38:03.033Z,14.05
2022-09-01T01:40:32.232Z,14.10
2022-09-01T01:43:01.445Z,14.13
2022-09-01T01:45:29.794Z,14.13
2022-09-01T01:47:57.951Z,14.12
2022-09-01T01:50:34.995Z,14.10
2022-09-01T01:53:11.345Z,14.08
2022-09-01T01:55:41.236Z,14.04
2022-09-01T01:58:11.287Z,14.04
2022-09-01T02:00:39.409Z,14.03
2022-09-01T02:03:10.424Z,14.02
2022-09-01T02:05:38.949Z,13.99
2022-09-01T02:08:10.869Z,13.98
2022-09-01T02:10:43.386Z,13.99
2022-09-01T02:13:15.754Z,14.01
2022-09-01T02:15:45.722Z,14.03
2022-09-01T02:18:17.437Z,14.06
2022-09-01T02:20:47.101Z,14.09
2022-09-01T02:23:17.464Z,14.08
2022-09-01T02:26:13.962Z,14.08
2022-09-01T02:28:43.547Z,14.11
2022-09-01T02:31:12.571Z,14.11
2022-09-01T02:33:44.923Z,14.08
2022-09-01T02:36:14.859Z,14.08
2022-09-01T02:38:47.205Z,14.09
2022-09-01T02:41:23.143Z,14.10
2022-09-01T02:43:51.558Z,14.10
2022-09-01T02:46:22.809Z,14.07
2022-09-01T02:48:54.277Z,14.05
2022-09-01T02:51:27.495Z,14.05
2022-09-01T02:53:55.186Z,14.04
2022-09-01T02:56:26.670Z,14.04
2022-09-01T02:58:55.016Z,14.02
2022-09-01T03:01:25.711Z,14.02
2022-09-01T03:03:56.125Z,14.02
2022-09-01T03:06:25.316Z,14.02
2022-09-01T03:08:55.111Z,13.99
2022-09-01T03:11:23.896Z,13.97
2022-09-01T03:13:53.272Z,14.00
2022-09-01T03:16:22.110Z,14.02
2022-09-01T03:18:50.720Z,14.05
2022-09-01T03:21:18.731Z,14.09
2022-09-01T03:23:48.618Z,14.09
2022-09-01T03:26:18.708Z,14.05
2022-09-01T03:28:47.270Z,14.01
2022-09-01T03:31:16.219Z,13.98
2022-09-01T03:33:44.229Z,13.95
2022-09-01T03:36:18.693Z,13.94
2022-09-01T03:38:48.777Z,13.96
2022-09-01T03:41:18.676Z,13.99
2022-09-01T03:43:48.278Z,13.99
2022-09-01T03:46:20.891Z,13.98
2022-09-01T03:48:50.700Z,13.95
2022-09-01T03:51:20.382Z,13.94
2022-09-01T03:53:48.671Z,13.93
2022-09-01T03:56:21.016Z,13.91
2022-09-01T03:58:48.821Z,13.94
2022-09-01T04:01:16.688Z,13.97
2022-09-01T04:03:48.403Z,13.99
2022-09-01T04:06:18.781Z,14.00
2022-09-01T04:08:46.656Z,14.03
2022-09-01T04:11:17.953Z,14.05
2022-09-01T04:13:46.635Z,14.04
2022-09-01T04:16:41.873Z,14.01
2022-09-01T04:19:19.453Z,13.94
2022-09-01T04:21:49.569Z,13.92
2022-09-01T04:24:18.239Z,13.92
2022-09-01T04:26:49.006Z,13.92
2022-09-01T04:29:18.674Z,13.96
2022-09-01T04:31:52.908Z,14.00
2022-09-01T04:34:24.312Z,14.01
2022-09-01T04:36:55.246Z,14.02
2022-09-01T04:39:24.764Z,14.04
2022-09-01T04:41:52.792Z,14.07
2022-09-01T04:44:21.535Z,14.08
2022-09-01T04:46:50.041Z,14.11
2022-09-01T04:49:21.641Z,14.14
2022-09-01T04:51:53.964Z,14.17
2022-09-01T04:54:24.437Z,14.18
2022-09-01T04:56:54.277Z,14.16
2022-09-01T04:59:23.980Z,14.14
2022-09-01T05:01:54.359Z,14.13
2022-09-01T05:04:26.866Z,14.15
2022-09-01T05:06:59.338Z,14.17
2022-09-01T05:09:33.061Z,14.16
2022-09-01T05:12:12.738Z,14.17
2022-09-01T05:14:47.697Z,14.21
2022-09-01T05:17:16.716Z,14.21
2022-09-01T05:19:47.345Z,14.22
2022-09-01T05:22:16.207Z,14.27
2022-09-01T05:24:44.019Z,14.31
2022-09-01T05:27:14.313Z,14.35
2022-09-01T05:29:41.824Z,14.40
2022-09-01T05:32:10.742Z,14.45
2022-09-01T05:34:39.435Z,14.49
2022-09-01T05:37:08.770Z,14.52
2022-09-01T05:39:37.577Z,14.54
2022-09-01T05:42:07.380Z,14.59
2022-09-01T05:44:35.688Z,14.62
2022-09-01T05:47:04.771Z,14.67
2022-09-01T05:49:32.858Z,14.71
2022-09-01T05:52:00.530Z,14.73
2022-09-01T05:54:28.989Z,14.78
2022-09-01T05:57:17.498Z,14.83
2022-09-01T05:59:53.078Z,14.90
2022-09-01T06:02:22.027Z,14.94
2022-09-01T06:04:49.815Z,14.95
2022-09-01T06:07:18.252Z,14.96
2022-09-01T06:09:48.165Z,14.97
2022-09-01T06:12:19.754Z,15.03
2022-09-01T06:14:48.837Z,15.10
2022-09-01T06:17:21.443Z,15.13
2022-09-01T06:19:49.297Z,15.19
2022-09-01T06:22:16.870Z,15.24
2022-09-01T06:24:46.288Z,15.27
2022-09-01T06:27:19.702Z,15.34
2022-09-01T06:29:52.981Z,15.43
2022-09-01T06:32:21.002Z,15.50
2022-09-01T06:34:50.511Z,15.56
2022-09-01T06:37:22.066Z,15.61
2022-09-01T06:39:50.556Z,15.73
2022-09-01T06:42:19.330Z,15.83
2022-09-01T06:44:47.298Z,15.90
2022-09-01T06:47:15.442Z,15.94
2022-09-01T06:49:44.166Z,15.97
2022-09-01T06:52:13.168Z,16.05
2022-09-01T06:54:43.203Z,16.10
2022-09-01T06:59:59.609Z,16.21
2022-09-01T07:02:27.547Z,16.21
2022-09-01T07:04:55.207Z,16.25
2022-09-01T07:10:22.819Z,16.41
2022-09-01T07:13:07.047Z,16.45
2022-09-01T07:18:28.173Z,16.58
2022-09-01T07:21:07.418Z,16.66
2022-09-01T07:24:07.676Z,16.72
2022-09-01T07:26:35.089Z,16.81
2022-09-01T07:29:24.457Z,16.88
2022-09-01T07:34:46.177Z,17.05
2022-09-01T07:42:59.010Z,17.13
2022-09-01T07:43:12.085Z,17.15
2022-09-01T07:45:47.136Z,17.11
2022-09-01T07:51:35.675Z,17.13
2022-09-01T07:53:55.812Z,17.14
2022-09-01T07:56:25.870Z,17.13
2022-09-01T07:58:57.010Z,17.12
2022-09-01T08:01:27.193Z,17.14
2022-09-01T08:03:57.642Z,17.16
2022-09-01T08:06:28.061Z,17.17
2022-09-01T08:08:57.988Z,17.17
2022-09-01T08:11:51.483Z,17.22
2022-09-01T08:14:18.269Z,17.29
2022-09-01T08:16:53.443Z,17.42
2022-09-01T08:19:21.448Z,17.58
2022-09-01T08:21:49.148Z,17.69
2022-09-01T08:24:16.721Z,17.80
2022-09-01T08:26:45.265Z,17.87
2022-09-01T08:29:12.942Z,17.87
2022-09-01T08:31:42.290Z,17.90
2022-09-01T08:34:12.866Z,17.97
2022-09-01T08:36:40.615Z,18.06
2022-09-01T08:39:12.703Z,18.10
2022-09-01T08:41:47.510Z,18.15
2022-09-01T08:44:28.074Z,18.25
2022-09-01T08:47:03.277Z,18.26
2022-09-01T08:49:42.606Z,18.29
2022-09-01T08:52:21.858Z,18.28
2022-09-01T08:54:53.841Z,18.31
2022-09-01T08:57:27.145Z,18.35
2022-09-01T08:59:54.707Z,18.45
2022-09-01T09:02:36.343Z,18.59
2022-09-01T09:05:22.405Z,18.75
2022-09-01T09:08:08.455Z,18.88
2022-09-01T09:10:48.683Z,18.95
2022-09-01T09:13:26.723Z,19.04
2022-09-01T09:16:14.735Z,19.09
2022-09-01T09:18:56.662Z,19.01
2022-09-01T09:21:29.941Z,18.87
2022-09-01T09:24:03.331Z,18.75
2022-09-01T09:26:42.220Z,18.66
2022-09-01T09:29:10.886Z,18.58
2022-09-01T09:31:48.118Z,18.49
2022-09-01T09:34:32.799Z,18.41
2022-09-01T09:37:17.028Z,18.36
2022-09-01T09:39:45.071Z,18.32
2022-09-01T09:42:15.374Z,18.29
2022-09-01T09:44:48.237Z,18.25
2022-09-01T09:47:43.653Z,18.27
2022-09-01T09:50:20.925Z,18.30
2022-09-01T09:52:50.210Z,18.28
2022-09-01T09:55:27.968Z,18.37
2022-09-01T09:57:59.799Z,18.58
2022-09-01T10:00:31.679Z,18.76
2022-09-01T10:03:07.899Z,18.93
2022-09-01T10:05:42.783Z,19.04
2022-09-01T10:08:14.211Z,19.02
2022-09-01T10:10:45.038Z,19.00
2022-09-01T10:13:26.936Z,18.99
2022-09-01T10:15:57.988Z,18.98
2022-09-01T10:18:30.251Z,19.06
2022-09-01T10:21:00.727Z,19.06
2022-09-01T10:23:34.083Z,19.09
2022-09-01T10:26:09.499Z,19.14
2022-09-01T10:28:49.479Z,19.31
2022-09-01T10:31:20.239Z,19.41
2022-09-01T10:33:48.962Z,19.41
2022-09-01T10:36:17.683Z,19.34
2022-09-01T10:38:50.537Z,19.29
2022-09-01T10:41:59.296Z,19.17
2022-09-01T10:44:33.123Z,19.15
2022-09-01T10:47:08.760Z,19.20
2022-09-01T10:49:59.653Z,19.20
2022-09-01T10:52:55.346Z,19.24
2022-09-01T10:55:28.435Z,19.33
2022-09-01T10:59:30.594Z,19.34
2022-09-01T11:04:00.492Z,19.12
2022-09-01T11:09:43.507Z,18.95
2022-09-01T11:12:45.915Z,18.85
2022-09-01T11:15:34.108Z,18.76
2022-09-01T11:18:02.751Z,18.70
2022-09-01T11:20:34.106Z,18.66
2022-09-01T11:23:05.854Z,18.63
2022-09-01T11:25:41.440Z,18.63
2022-09-01T11:28:31.198Z,18.60
2022-09-01T11:31:02.176Z,18.57
2022-09-01T11:33:41.891Z,18.68
2022-09-01T11:36:18.082Z,18.83
2022-09-01T11:38:50.583Z,18.97
2022-09-01T11:41:24.095Z,19.12
2022-09-01T11:43:57.483Z,19.27
2022-09-01T11:46:28.947Z,19.43
2022-09-01T11:48:59.691Z,19.60
2022-09-01T11:51:27.376Z,19.68
2022-09-01T11:54:00.370Z,19.70
2022-09-01T11:56:29.002Z,19.72
2022-09-01T11:58:56.634Z,19.86
2022-09-01T12:01:32.533Z,19.99
2022-09-01T12:04:21.609Z,20.13
2022-09-01T12:06:54.851Z,20.31
2022-09-01T12:09:30.777Z,20.45
2022-09-01T12:11:58.599Z,20.59
2022-09-01T12:14:26.374Z,20.69
2022-09-01T12:17:01.155Z,20.76
2022-09-01T12:19:31.156Z,20.84
2022-09-01T12:22:02.748Z,20.96
2022-09-01T12:24:34.709Z,21.06
2022-09-01T12:27:04.291Z,21.14
2022-09-01T12:29:32.567Z,21.28
2022-09-01T12:32:01.274Z,21.38
2022-09-01T12:34:38.798Z,21.44
2022-09-01T12:37:10.429Z,21.49
2022-09-01T12:39:40.102Z,21.46
2022-09-01T12:42:24.286Z,21.21
2022-09-01T12:44:53.730Z,21.19
2022-09-01T12:47:49.977Z,21.23
2022-09-01T12:50:45.509Z,21.35
2022-09-01T12:53:27.922Z,21.50
2022-09-01T12:56:20.248Z,21.61
2022-09-01T12:58:53.220Z,21.57
2022-09-01T13:01:39.269Z,21.62
2022-09-01T13:04:12.048Z,21.42
2022-09-01T13:06:39.608Z,21.53
2022-09-01T13:09:07.599Z,21.73
2022-09-01T13:14:25.039Z,22.17
2022-09-01T13:16:52.849Z,22.37
2022-09-01T13:19:27.831Z,22.45
2022-09-01T13:21:58.173Z,22.63
2022-09-01T13:24:29.421Z,22.76
2022-09-01T13:29:46.776Z,22.86
2022-09-01T13:32:19.152Z,22.88
2022-09-01T13:34:49.231Z,22.84
2022-09-01T13:37:18.605Z,22.89
2022-09-01T13:39:47.742Z,22.94
2022-09-01T13:42:16.298Z,23.06
2022-09-01T13:44:44.403Z,23.20
2022-09-01T13:47:29.038Z,22.95
2022-09-01T13:50:14.490Z,22.56
2022-09-01T13:52:45.377Z,22.22
2022-09-01T13:55:16.176Z,21.99
2022-09-01T13:57:43.735Z,21.71
2022-09-01T14:00:16.509Z,21.50
2022-09-01T14:02:49.636Z,21.30
2022-09-01T14:05:20.938Z,21.10
2022-09-01T14:07:48.907Z,21.13
2022-09-01T14:10:17.691Z,21.30
2022-09-01T14:12:45.988Z,21.46
2022-09-01T14:15:17.835Z,21.65
2022-09-01T14:17:49.543Z,21.93
2022-09-01T14:20:21.167Z,22.10
2022-09-01T14:22:49.956Z,22.30
2022-09-01T14:25:18.962Z,22.40
2022-09-01T14:27:48.311Z,22.40
2022-09-01T14:30:18.985Z,22.61
2022-09-01T14:32:47.132Z,22.74
2022-09-01T14:35:15.743Z,22.79
2022-09-01T14:37:44.210Z,22.89
2022-09-01T14:40:16.690Z,22.83
2022-09-01T14:42:48.441Z,22.95
2022-09-01T14:45:17.845Z,23.19
2022-09-01T14:47:45.549Z,23.45
2022-09-01T14:50:17.265Z,23.73
2022-09-01T14:52:48.624Z,23.83
2022-09-01T14:55:17.097Z,23.91
2022-09-01T14:57:44.731Z,23.83
2022-09-01T15:00:13.576Z,23.89
2022-09-01T15:02:43.269Z,23.99
2022-09-01T15:05:12.334Z,23.69
2022-09-01T15:07:40.506Z,23.34
2022-09-01T15:10:11.558Z,23.09
2022-09-01T15:12:44.555Z,22.92
2022-09-01T15:15:12.727Z,22.80
2022-09-01T15:17:42.265Z,22.77
2022-09-01T15:20:31.015Z,22.62
2022-09-01T15:22:58.649Z,22.39
2022-09-01T15:25:26.686Z,22.24
2022-09-01T15:27:54.198Z,22.21
2022-09-01T15:30:22.136Z,22.21
2022-09-01T15:32:53.493Z,22.05
2022-09-01T15:35:21.930Z,22.03
2022-09-01T15:37:50.863Z,21.93
2022-09-01T15:40:19.851Z,21.91
2022-09-01T15:42:47.754Z,21.99
2022-09-01T15:45:18.144Z,21.89
2022-09-01T15:47:47.643Z,21.57
2022-09-01T15:50:21.976Z,21.39
2022-09-01T15:52:52.851Z,21.30
2022-09-01T15:55:22.919Z,21.11
2022-09-01T15:57:53.947Z,20.90
2022-09-01T16:00:23.470Z,20.74
2022-09-01T16:02:55.716Z,20.67
2022-09-01T16:05:25.318Z,20.61
2022-09-01T16:07:54.042Z,20.51
2022-09-01T16:10:22.489Z,20.42
2022-09-01T16:12:51.190Z,20.24
2022-09-01T16:15:21.967Z,20.09
2022-09-01T16:18:13.287Z,19.92
2022-09-01T16:20:49.691Z,19.73
2022-09-01T16:23:20.134Z,19.64
2022-09-01T16:25:48.141Z,19.54
2022-09-01T16:28:26.664Z,19.46
2022-09-01T16:30:59.213Z,19.43
2022-09-01T16:33:27.017Z,19.48
2022-09-01T16:36:10.497Z,19.48
2022-09-01T16:38:46.606Z,19.45
2022-09-01T16:41:35.600Z,19.44
2022-09-01T16:44:13.810Z,19.37
2022-09-01T16:46:48.295Z,19.31
2022-09-01T16:49:27.480Z,19.19
2022-09-01T16:52:04.765Z,19.08
2022-09-01T16:54:47.898Z,19.05
2022-09-01T16:57:27.501Z,19.02
2022-09-01T16:59:58.146Z,18.88
2022-09-01T17:02:36.972Z,18.71
2022-09-01T17:05:16.615Z,18.64
2022-09-01T17:07:51.419Z,18.58
2022-09-01T17:10:32.243Z,18.50
2022-09-01T17:13:13.636Z,18.42
2022-09-01T17:15:43.352Z,18.34
2022-09-01T17:18:21.726Z,18.28
2022-09-01T17:20:58.192Z,18.25
2022-09-01T17:23:30.304Z,18.24
2022-09-01T17:26:02.460Z,18.16
2022-09-01T17:28:35.738Z,18.09
2022-09-01T17:31:12.825Z,18.04
2022-09-01T17:33:56.315Z,17.96
2022-09-01T17:36:35.877Z,17.90
2022-09-01T17:39:14.812Z,17.75
2022-09-01T17:41:47.264Z,17.63
2022-09-01T17:44:23.720Z,17.53
2022-09-01T17:47:00.650Z,17.43
2022-09-01T17:49:35.766Z,17.33
2022-09-01T17:52:14.698Z,17.25
2022-09-01T17:54:54.176Z,17.21
2022-09-01T17:57:26.178Z,17.16
2022-09-01T18:00:01.113Z,17.08
2022-09-01T18:03:14.515Z,17.00
2022-09-01T18:05:45.347Z,16.91
2022-09-01T18:08:30.400Z,16.85
2022-09-01T18:11:02.429Z,16.80
2022-09-01T18:13:52.988Z,16.81
2022-09-01T18:16:25.320Z,16.82
2022-09-01T18:18:53.983Z,16.86
2022-09-01T18:21:26.269Z,16.90
2022-09-01T18:24:01.412Z,16.91
2022-09-01T18:26:32.537Z,16.90
2022-09-01T18:29:02.799Z,16.88
2022-09-01T18:31:51.274Z,16.88
2022-09-01T18:34:28.283Z,16.85
2022-09-01T18:37:02.246Z,16.82
2022-09-01T18:39:40.882Z,16.77
2022-09-01T18:42:16.467Z,16.76
2022-09-01T18:44:53.362Z,16.74
2022-09-01T18:47:29.992Z,16.72
2022-09-01T18:50:03.849Z,16.69
2022-09-01T18:52:49.852Z,16.66
2022-09-01T18:55:25.083Z,16.64
2022-09-01T18:57:55.943Z,16.60
2022-09-01T19:00:30.608Z,16.57
2022-09-01T19:03:09.567Z,16.55
2022-09-01T19:05:53.003Z,16.48
2022-09-01T19:08:30.465Z,16.41
2022-09-01T19:11:03.388Z,16.34
2022-09-01T19:13:50.263Z,16.28
2022-09-01T19:16:30.295Z,16.21
2022-09-01T19:19:07.449Z,16.16
2022-09-01T19:21:37.070Z,16.13
2022-09-01T19:24:09.798Z,16.11
2022-09-01T19:26:42.163Z,16.08
2022-09-01T19:29:16.107Z,16.03
2022-09-01T19:31:49.537Z,15.98
2022-09-01T19:34:20.032Z,15.95
2022-09-01T19:36:56.358Z,15.91
2022-09-01T19:39:29.867Z,15.88
2022-09-01T19:42:04.182Z,15.86
2022-09-01T19:44:37.722Z,15.80
2022-09-01T19:47:10.502Z,15.76
2022-09-01T19:49:43.753Z,15.72
2022-09-01T19:52:17.810Z,15.67
2022-09-01T19:54:53.455Z,15.66
2022-09-01T19:57:26.254Z,15.64
2022-09-01T20:00:05.193Z,15.62
2022-09-01T20:02:37.519Z,15.61
2022-09-01T20:05:15.128Z,15.57
2022-09-01T20:07:53.308Z,15.52
2022-09-01T20:10:37.076Z,15.48
2022-09-01T20:13:30.414Z,15.41
2022-09-01T20:16:08.559Z,15.37
2022-09-01T20:18:42.758Z,15.29
2022-09-01T20:21:20.799Z,15.27
2022-09-01T20:23:53.968Z,15.25
2022-09-01T20:26:26.247Z,15.22
2022-09-01T20:28:59.451Z,15.19
2022-09-01T20:31:31.321Z,15.17
2022-09-01T20:34:04.534Z,15.13
2022-09-01T20:36:37.655Z,15.08
2022-09-01T20:39:29.233Z,15.02
2022-09-01T20:42:04.829Z,14.97
2022-09-01T20:44:40.504Z,14.93
2022-09-01T20:47:08.267Z,14.90
2022-09-01T20:49:38.476Z,14.87
2022-09-01T20:52:13.801Z,14.80
2022-09-01T20:54:54.519Z,14.74
2022-09-01T20:57:33.032Z,14.68
2022-09-01T21:00:06.419Z,14.67
2022-09-01T21:02:45.960Z,14.64
2022-09-01T21:05:25.746Z,14.55
2022-09-01T21:08:09.370Z,14.49
2022-09-01T21:10:43.233Z,14.43
2022-09-01T21:13:24.915Z,14.36
2022-09-01T21:16:01.257Z,14.33
2022-09-01T21:18:43.953Z,14.30
2022-09-01T21:21:21.747Z,14.27
2022-09-01T21:23:49.379Z,14.24
2022-09-01T21:26:17.641Z,14.19
2022-09-01T21:28:48.276Z,14.13
2022-09-01T21:31:16.032Z,14.10
2022-09-01T21:33:43.995Z,14.08
2022-09-01T21:36:11.810Z,14.06
2022-09-01T21:38:39.567Z,14.07
2022-09-01T21:41:12.986Z,14.04
2022-09-01T21:43:44.001Z,14.01
2022-09-01T21:46:13.079Z,13.97
2022-09-01T21:48:40.815Z,13.96
2022-09-01T21:51:08.632Z,13.95
2022-09-01T21:53:36.296Z,13.93
2022-09-01T21:56:04.063Z,13.89
2022-09-01T21:58:32.138Z,13.83
2022-09-01T22:01:01.820Z,13.79
2022-09-01T22:03:29.669Z,13.76
2022-09-01T22:05:57.240Z,13.74
2022-09-01T22:08:25.335Z,13.76
2022-09-01T22:10:54.733Z,13.80
2022-09-01T22:13:24.135Z,13.82
2022-09-01T22:15:53.616Z,13.83
2022-09-01T22:18:22.010Z,13.86
2022-09-01T22:20:49.991Z,13.90
2022-09-01T22:23:19.566Z,13.91
2022-09-01T22:25:47.640Z,13.92
2022-09-01T22:28:15.363Z,13.93
2022-09-01T22:30:48.165Z,13.93
2022-09-01T22:33:16.926Z,13.90
2022-09-01T22:35:47.649Z,13.91
2022-09-01T22:38:15.740Z,13.92
2022-09-01T22:40:48.331Z,13.93
2022-09-01T22:43:17.060Z,13.91
2022-09-01T22:45:45.055Z,13.89
2022-09-01T22:48:13.188Z,13.88
2022-09-01T22:50:43.340Z,13.87
2022-09-01T22:53:11.898Z,13.87
2022-09-01T22:55:43.586Z,13.91
2022-09-01T22:58:12.441Z,13.92
2022-09-01T23:00:45.585Z,13.93
2022-09-01T23:03:15.065Z,13.96
2022-09-01T23:05:43.562Z,14.00
2022-09-01T23:08:11.477Z,14.02
2022-09-01T23:10:39.362Z,14.05
2022-09-01T23:13:08.001Z,14.08
2022-09-01T23:15:39.355Z,14.10
2022-09-01T23:18:09.371Z,14.12
2022-09-01T23:20:39.898Z,14.14
2022-09-01T23:23:08.194Z,14.16
2022-09-01T23:25:35.851Z,14.18
2022-09-01T23:28:04.215Z,14.19
2022-09-01T23:30:37.325Z,14.18
2022-09-01T23:33:05.458Z,14.16
2022-09-01T23:35:33.331Z,14.16
2022-09-01T23:38:00.976Z,14.17
2022-09-01T23:40:28.700Z,14.19
2022-09-01T23:42:56.456Z,14.18
2022-09-01T23:45:35.700Z,14.19
2022-09-01T23:48:04.277Z,14.19
2022-09-01T23:50:31.777Z,14.18
2022-09-01T23:52:59.393Z,14.19
2022-09-01T23:55:27.260Z,14.20
2022-09-01T23:57:55.491Z,14.18
